Time;durP1;ratioP1;P1;durP2;ratioP2;P2;SDS_P1;SDS_P2;PMS_P1;PMS_P2;Temp;Humidity;BMP_temperature;BMP_pressure;BME280_temperature;BME280_humidity;BME280_pressure;Samples;Min_cycle;Max_cycle;Signal;HPM_P1;HPM_P2
2023/06/17 00:00:16;;;;;;;12.73;8.50;;;19.40;1.00;;;;;;5033580;28;20220;-73
2023/06/17 00:02:42;;;;;;;11.13;8.07;;;;;;;;;;5044830;28;20184;-72
2023/06/17 00:05:08;;;;;;;10.47;8.03;;;19.10;1.00;;;;;;5036269;28;20255;-72
2023/06/17 00:07:34;;;;;;;11.53;8.00;;;19.00;1.00;;;;;;5047131;28;20200;-73
2023/06/17 00:09:59;;;;;;;9.77;8.30;;;19.00;1.00;;;;;;5035014;28;20456;-73
2023/06/17 00:12:29;;;;;;;11.10;8.20;;;18.90;1.00;;;;;;5039403;28;20199;-73
2023/06/17 00:14:56;;;;;;;17.93;8.50;;;18.90;1.00;;;;;;5040366;28;20200;-73
2023/06/17 00:17:23;;;;;;;11.03;8.90;;;19.00;1.00;;;;;;5038601;28;20539;-73
2023/06/17 00:19:49;;;;;;;12.10;8.47;;;18.80;1.00;;;;;;5027016;28;20547;-73
2023/06/17 00:22:14;;;;;;;11.90;8.57;;;18.70;1.00;;;;;;5026575;28;20475;-73
2023/06/17 00:24:41;;;;;;;11.27;8.90;;;;;;;;;;5059394;28;20201;-74
2023/06/17 00:27:06;;;;;;;13.10;8.30;;;18.70;1.00;;;;;;5030885;28;20181;-74
2023/06/17 00:29:32;;;;;;;10.57;9.00;;;;;;;;;;5036321;28;20853;-73
2023/06/17 00:31:58;;;;;;;12.83;9.00;;;18.50;1.00;;;;;;5038409;28;20189;-74
2023/06/17 00:34:23;;;;;;;12.50;8.80;;;18.40;1.00;;;;;;5038128;28;20213;-73
2023/06/17 00:36:49;;;;;;;10.90;9.17;;;18.20;1.00;;;;;;5040392;28;20706;-73
2023/06/17 00:39:15;;;;;;;11.77;8.80;;;;;;;;;;5040795;28;20216;-73
2023/06/17 00:41:40;;;;;;;10.80;8.63;;;17.90;1.00;;;;;;5044554;28;20536;-74
2023/06/17 00:44:06;;;;;;;10.10;8.57;;;17.90;1.00;;;;;;5035843;28;20814;-74
2023/06/17 00:46:38;;;;;;;11.10;8.93;;;17.90;1.00;;;;;;5034199;28;20181;-74
2023/06/17 00:49:05;;;;;;;10.60;8.77;;;18.10;1.00;;;;;;5037029;28;20683;-74
2023/06/17 00:51:32;;;;;;;10.07;8.37;;;17.80;1.00;;;;;;5038238;28;20440;-74
2023/06/17 00:53:58;;;;;;;12.73;8.13;;;17.70;1.00;;;;;;5036438;28;20447;-73
2023/06/17 00:56:26;;;;;;;10.50;8.60;;;17.70;1.00;;;;;;5036292;28;20981;-74
2023/06/17 00:58:53;;;;;;;9.87;8.77;;;17.70;1.00;;;;;;5033743;28;20479;-73
2023/06/17 01:01:19;;;;;;;11.83;9.17;;;18.40;1.00;;;;;;5036515;28;20937;-74
2023/06/17 01:03:45;;;;;;;12.07;9.00;;;17.70;1.00;;;;;;5038875;28;20439;-74
2023/06/17 01:06:17;;;;;;;11.03;9.10;;;17.70;1.00;;;;;;5029720;28;20940;-73
2023/06/17 01:08:52;;;;;;;11.00;8.80;;;17.70;1.00;;;;;;5030402;28;20453;-73
2023/06/17 01:11:21;;;;;;;11.27;9.20;;;17.70;1.00;;;;;;5040215;28;20461;-73
2023/06/17 01:13:51;;;;;;;11.33;8.57;;;17.60;1.00;;;;;;5062217;28;20974;-74
2023/06/17 01:16:17;;;;;;;11.30;8.83;;;17.60;1.00;;;;;;5034527;28;20427;-74
2023/06/17 01:18:48;;;;;;;12.17;8.90;;;17.50;1.00;;;;;;5032672;28;20970;-74
2023/06/17 01:21:17;;;;;;;14.43;9.03;;;17.40;1.00;;;;;;5036204;28;20497;-74
2023/06/17 01:23:53;;;;;;;12.97;8.83;;;17.10;1.00;;;;;;5062549;28;20499;-74
2023/06/17 01:26:19;;;;;;;15.40;9.20;;;17.20;1.00;;;;;;5022941;28;20858;-74
2023/06/17 01:28:45;;;;;;;13.83;9.40;;;17.00;1.00;;;;;;5043480;28;20510;-74
2023/06/17 01:31:12;;;;;;;15.37;8.50;;;16.90;1.00;;;;;;5043701;28;20435;-74
2023/06/17 01:33:41;;;;;;;12.13;8.43;;;16.90;1.00;;;;;;5043043;28;20184;-74
2023/06/17 01:36:14;;;;;;;11.60;8.57;;;16.90;1.00;;;;;;5041261;28;20559;-74
2023/06/17 01:38:46;;;;;;;10.90;9.13;;;16.90;1.00;;;;;;5046918;28;20459;-74
2023/06/17 01:41:24;;;;;;;31.63;8.67;;;16.90;1.00;;;;;;5038032;28;20546;-74
2023/06/17 01:43:50;;;;;;;15.17;8.60;;;;;;;;;;5042887;28;20946;-74
2023/06/17 01:46:17;;;;;;;10.97;8.50;;;16.60;1.00;;;;;;5061598;28;20460;-74
2023/06/17 01:48:43;;;;;;;12.00;8.10;;;16.50;1.00;;;;;;5029096;28;20490;-74
2023/06/17 01:51:09;;;;;;;17.60;8.60;;;16.50;1.00;;;;;;5046360;28;20954;-74
2023/06/17 01:53:34;;;;;;;9.40;8.20;;;16.50;1.00;;;;;;5042238;28;20505;-74
2023/06/17 01:56:00;;;;;;;11.57;8.47;;;16.50;1.00;;;;;;5028776;28;20178;-73
2023/06/17 01:58:25;;;;;;;11.10;8.37;;;16.50;1.00;;;;;;5041821;28;20224;-73
2023/06/17 02:00:51;;;;;;;11.57;8.17;;;16.40;1.00;;;;;;5044254;28;20193;-73
2023/06/17 02:03:17;;;;;;;9.20;8.20;;;16.40;1.00;;;;;;5044025;28;20189;-74
2023/06/17 02:05:43;;;;;;;12.00;8.90;;;;;;;;;;5042272;28;20182;-73
2023/06/17 02:08:10;;;;;;;11.90;7.93;;;16.30;1.00;;;;;;5040655;28;20189;-74
2023/06/17 02:10:36;;;;;;;12.93;8.43;;;16.20;1.00;;;;;;5048666;28;20965;-74
2023/06/17 02:13:07;;;;;;;17.73;7.80;;;18.00;1.00;;;;;;5036499;28;20448;-74
2023/06/17 02:15:33;;;;;;;11.83;8.23;;;16.10;1.00;;;;;;5035114;28;20205;-74
2023/06/17 02:17:59;;;;;;;10.77;7.23;;;16.00;1.00;;;;;;5031002;28;20460;-74
2023/06/17 02:20:26;;;;;;;12.77;7.47;;;16.00;1.00;;;;;;5038695;28;20636;-74
2023/06/17 02:22:52;;;;;;;15.00;7.33;;;16.10;1.00;;;;;;5035841;28;20411;-74
2023/06/17 02:25:18;;;;;;;13.73;7.47;;;16.40;1.00;;;;;;5035795;28;20445;-74
2023/06/17 02:27:43;;;;;;;12.53;7.83;;;16.10;1.00;;;;;;5035283;28;20939;-74
2023/06/17 02:30:10;;;;;;;10.67;7.37;;;16.10;1.00;;;;;;5046357;28;20208;-74
2023/06/17 02:32:35;;;;;;;16.10;7.53;;;16.00;1.00;;;;;;5045793;28;20181;-74
2023/06/17 02:35:02;;;;;;;18.17;7.63;;;16.00;1.00;;;;;;5044424;28;20440;-74
2023/06/17 02:37:28;;;;;;;15.57;7.13;;;16.60;1.00;;;;;;5046136;28;20207;-74
2023/06/17 02:39:54;;;;;;;10.30;8.00;;;16.00;1.00;;;;;;5035689;28;20452;-73
2023/06/17 02:42:20;;;;;;;8.90;7.30;;;16.00;1.00;;;;;;5037335;28;20180;-74
2023/06/17 02:44:45;;;;;;;14.90;7.87;;;15.90;1.00;;;;;;5028178;28;20519;-73
2023/06/17 02:47:11;;;;;;;11.40;7.67;;;15.90;1.00;;;;;;5031770;28;20192;-74
2023/06/17 02:49:36;;;;;;;10.57;7.53;;;15.80;1.00;;;;;;5040826;28;20205;-73
2023/06/17 02:52:02;;;;;;;11.13;7.50;;;17.00;1.00;;;;;;5041126;28;20547;-74
2023/06/17 02:54:28;;;;;;;13.53;7.60;;;15.80;1.00;;;;;;5029823;28;20217;-74
2023/06/17 02:56:53;;;;;;;14.83;7.70;;;15.80;1.00;;;;;;5034676;28;20208;-74
2023/06/17 02:59:19;;;;;;;13.57;7.50;;;15.70;1.00;;;;;;5045318;28;20219;-74
2023/06/17 03:01:44;;;;;;;7.80;6.90;;;16.00;1.00;;;;;;5040048;28;20185;-74
2023/06/17 03:04:10;;;;;;;18.07;7.77;;;15.70;1.00;;;;;;5036924;28;20731;-74
2023/06/17 03:06:37;;;;;;;16.03;7.43;;;15.50;1.00;;;;;;5036151;28;20181;-73
2023/06/17 03:09:05;;;;;;;13.00;7.20;;;15.70;1.00;;;;;;5034101;28;20456;-74
2023/06/17 03:11:31;;;;;;;10.57;7.30;;;15.70;1.00;;;;;;5044333;28;20451;-74
2023/06/17 03:13:57;;;;;;;12.60;8.70;;;;;;;;;;5044778;28;20829;-74
2023/06/17 03:16:25;;;;;;;8.57;7.40;;;15.80;1.00;;;;;;5034047;28;20216;-74
2023/06/17 03:18:52;;;;;;;8.43;6.80;;;;;;;;;;5027376;28;20202;-73
2023/06/17 03:21:18;;;;;;;20.03;7.23;;;;;;;;;;5030359;28;20436;-74
2023/06/17 03:23:45;;;;;;;8.40;6.80;;;15.80;1.00;;;;;;5038231;28;20536;-74
2023/06/17 03:26:10;;;;;;;8.43;7.10;;;15.70;1.00;;;;;;5059746;28;20444;-73
2023/06/17 03:28:36;;;;;;;9.87;7.07;;;15.70;1.00;;;;;;5040115;28;20459;-74
2023/06/17 03:31:02;;;;;;;11.03;7.63;;;15.70;1.00;;;;;;5032260;28;20182;-73
2023/06/17 03:33:28;;;;;;;9.67;6.70;;;;;;;;;;5038598;28;20270;-74
2023/06/17 03:35:54;;;;;;;10.50;7.40;;;15.80;1.00;;;;;;5036903;28;20464;-74
2023/06/17 03:38:20;;;;;;;10.00;7.33;;;;;;;;;;5036898;28;20786;-75
2023/06/17 03:40:46;;;;;;;11.00;7.70;;;15.80;1.00;;;;;;5041141;28;20181;-73
2023/06/17 03:43:13;;;;;;;7.73;6.87;;;15.70;1.00;;;;;;5047058;28;20634;-74
2023/06/17 03:45:39;;;;;;;10.63;7.30;;;;;;;;;;5038744;28;20261;-74
2023/06/17 03:48:05;;;;;;;12.47;7.53;;;15.70;1.00;;;;;;5059268;28;20530;-73
2023/06/17 03:50:31;;;;;;;8.53;7.40;;;15.70;1.00;;;;;;5036501;28;20440;-74
2023/06/17 03:52:57;;;;;;;10.50;6.83;;;15.70;1.00;;;;;;5041198;28;20264;-74
2023/06/17 03:55:23;;;;;;;8.40;7.23;;;15.70;1.00;;;;;;5026023;28;20236;-74
2023/06/17 03:57:49;;;;;;;7.80;6.73;;;15.90;1.00;;;;;;5027353;28;20189;-74
2023/06/17 04:00:15;;;;;;;8.60;7.03;;;15.70;1.00;;;;;;5036138;28;20537;-74
2023/06/17 04:02:44;;;;;;;14.07;7.80;;;15.70;1.00;;;;;;5035695;28;21089;-74
2023/06/17 04:05:12;;;;;;;10.90;7.70;;;15.90;1.00;;;;;;5028968;28;20854;-74
2023/06/17 04:07:38;;;;;;;8.97;6.70;;;15.60;1.00;;;;;;5026654;28;20482;-74
2023/06/17 04:10:07;;;;;;;11.00;7.30;;;15.70;1.00;;;;;;5034112;28;20537;-73
2023/06/17 04:12:33;;;;;;;10.27;7.10;;;15.70;1.00;;;;;;5039928;28;20442;-73
2023/06/17 04:14:58;;;;;;;12.27;7.27;;;15.70;1.00;;;;;;5029806;28;20862;-74
2023/06/17 04:17:23;;;;;;;11.03;7.50;;;15.80;1.00;;;;;;5037759;28;20204;-74
2023/06/17 04:19:49;;;;;;;10.20;7.53;;;15.80;1.00;;;;;;5036427;28;20202;-73
2023/06/17 04:22:15;;;;;;;10.57;7.43;;;15.80;1.00;;;;;;5047520;28;20185;-73
2023/06/17 04:24:40;;;;;;;10.17;7.80;;;15.80;1.00;;;;;;5040210;28;20175;-73
2023/06/17 04:27:07;;;;;;;8.60;7.40;;;15.80;1.00;;;;;;5039332;28;20505;-73
2023/06/17 04:29:34;;;;;;;9.83;7.37;;;15.90;1.00;;;;;;5045427;28;20228;-73
2023/06/17 04:32:01;;;;;;;9.90;7.33;;;13.10;1.00;;;;;;5038052;28;20467;-72
2023/06/17 04:34:26;;;;;;;8.20;7.30;;;15.90;1.00;;;;;;5046514;28;20447;-73
2023/06/17 04:36:57;;;;;;;11.10;7.47;;;;;;;;;;5045767;28;20463;-73
2023/06/17 04:39:28;;;;;;;8.73;6.73;;;16.00;1.00;;;;;;5043286;28;20200;-73
2023/06/17 04:41:54;;;;;;;8.63;7.23;;;15.90;1.00;;;;;;5035905;28;20447;-72
2023/06/17 04:44:20;;;;;;;8.17;7.10;;;16.10;1.00;;;;;;5049631;28;20437;-73
2023/06/17 04:46:48;;;;;;;9.43;7.27;;;;;;;;;;5045017;28;20193;-72
2023/06/17 04:49:14;;;;;;;10.70;7.87;;;16.30;1.00;;;;;;5034318;28;20533;-73
2023/06/17 04:51:40;;;;;;;16.80;8.10;;;18.60;1.00;;;;;;5043854;28;20427;-73
2023/06/17 04:54:06;;;;;;;9.60;7.60;;;16.50;1.00;;;;;;5034930;28;20494;-72
2023/06/17 04:56:32;;;;;;;9.20;7.90;;;16.60;1.00;;;;;;5037358;28;20513;-73
2023/06/17 04:58:58;;;;;;;11.63;7.70;;;16.60;1.00;;;;;;5044802;28;20467;-74
2023/06/17 05:01:23;;;;;;;9.63;7.90;;;16.70;1.00;;;;;;5046904;28;20191;-72
2023/06/17 05:03:49;;;;;;;9.43;7.30;;;16.80;1.00;;;;;;5036622;28;20188;-73
2023/06/17 05:06:15;;;;;;;10.97;8.60;;;16.80;1.00;;;;;;5042682;28;20182;-73
2023/06/17 05:08:40;;;;;;;10.40;8.43;;;16.90;1.00;;;;;;5036028;28;20354;-73
2023/06/17 05:11:06;;;;;;;11.47;8.60;;;17.00;1.00;;;;;;5041490;28;20216;-72
2023/06/17 05:13:31;;;;;;;13.10;8.63;;;17.40;1.00;;;;;;5041109;28;20197;-73
2023/06/17 05:15:57;;;;;;;13.17;9.20;;;17.20;1.00;;;;;;5042063;28;20181;-73
2023/06/17 05:18:22;;;;;;;11.20;8.77;;;17.40;1.00;;;;;;5033333;28;20224;-73
2023/06/17 05:20:47;;;;;;;11.00;9.60;;;17.40;1.00;;;;;;5034205;28;20262;-73
2023/06/17 05:23:13;;;;;;;18.10;10.00;;;17.50;1.00;;;;;;5030621;28;20625;-73
2023/06/17 05:25:39;;;;;;;11.13;9.80;;;18.50;1.00;;;;;;5027700;28;20190;-73
2023/06/17 05:28:06;;;;;;;14.10;9.87;;;17.90;1.00;;;;;;5041759;28;20185;-72
2023/06/17 05:30:32;;;;;;;16.20;10.77;;;18.00;1.00;;;;;;5045823;28;20185;-72
2023/06/17 05:32:57;;;;;;;11.00;9.57;;;19.00;1.00;;;;;;5042117;28;20451;-72
2023/06/17 05:35:23;;;;;;;15.23;10.27;;;18.10;1.00;;;;;;5047864;28;20216;-73
2023/06/17 05:37:48;;;;;;;12.90;10.10;;;18.20;1.00;;;;;;5045832;28;20217;-72
2023/06/17 05:40:14;;;;;;;15.80;10.60;;;18.30;1.00;;;;;;5047764;28;20209;-73
2023/06/17 05:42:40;;;;;;;13.43;10.80;;;18.30;1.00;;;;;;5036856;28;20242;-73
2023/06/17 05:45:06;;;;;;;12.53;10.40;;;18.50;1.00;;;;;;5040910;28;20560;-72
2023/06/17 05:47:31;;;;;;;14.30;10.20;;;18.60;1.00;;;;;;5041242;28;20238;-72
2023/06/17 05:49:57;;;;;;;16.17;12.17;;;18.70;1.00;;;;;;5038462;28;20929;-73
2023/06/17 05:52:22;;;;;;;17.03;12.50;;;20.00;1.00;;;;;;5046543;28;20193;-73
2023/06/17 05:54:48;;;;;;;13.57;11.43;;;18.90;1.00;;;;;;5032895;28;20174;-72
2023/06/17 05:57:14;;;;;;;14.30;11.60;;;;;;;;;;5041998;28;20210;-72
2023/06/17 05:59:39;;;;;;;13.50;11.37;;;19.10;1.00;;;;;;5045066;28;20212;-72
2023/06/17 06:02:05;;;;;;;14.53;11.33;;;19.20;1.00;;;;;;5046419;28;20449;-72
2023/06/17 06:04:31;;;;;;;13.53;10.93;;;;;;;;;;5046978;28;20202;-73
2023/06/17 06:06:56;;;;;;;14.87;11.47;;;19.30;1.00;;;;;;5047996;28;20189;-73
2023/06/17 06:09:22;;;;;;;16.17;11.70;;;19.40;1.00;;;;;;5043198;28;20242;-73
2023/06/17 06:11:48;;;;;;;16.83;11.00;;;19.50;1.00;;;;;;5044218;28;20268;-72
2023/06/17 06:14:13;;;;;;;15.10;11.27;;;20.40;1.00;;;;;;5040388;28;20709;-73
2023/06/17 06:16:39;;;;;;;14.53;10.00;;;19.70;1.00;;;;;;5047038;28;20205;-73
2023/06/17 06:19:05;;;;;;;13.13;10.00;;;19.90;1.00;;;;;;5062878;28;20216;-72
2023/06/17 06:21:30;;;;;;;15.00;10.57;;;19.80;1.00;;;;;;5046790;28;20181;-72
2023/06/17 06:23:56;;;;;;;12.70;10.27;;;20.00;1.00;;;;;;5036533;28;20766;-72
2023/06/17 06:26:21;;;;;;;18.40;10.20;;;20.10;1.00;;;;;;5028331;28;20296;-73
2023/06/17 06:28:47;;;;;;;19.00;10.10;;;20.10;1.00;;;;;;5044433;28;20207;-72
2023/06/17 06:31:12;;;;;;;11.37;9.53;;;20.50;1.00;;;;;;5041144;28;20196;-72
2023/06/17 06:33:38;;;;;;;10.90;9.37;;;20.40;1.00;;;;;;5034156;28;20554;-73
2023/06/17 06:36:04;;;;;;;11.57;9.13;;;20.50;1.00;;;;;;5045983;28;20173;-72
2023/06/17 06:38:29;;;;;;;13.27;9.87;;;20.60;1.00;;;;;;5046034;28;20208;-72
2023/06/17 06:40:55;;;;;;;13.13;9.47;;;21.00;1.00;;;;;;5046523;28;20570;-72
2023/06/17 06:43:23;;;;;;;12.83;9.50;;;;;;;;;;5043261;28;20289;-73
2023/06/17 06:45:49;;;;;;;10.80;9.00;;;20.80;1.00;;;;;;5038580;28;20299;-72
2023/06/17 06:48:14;;;;;;;12.53;9.27;;;20.90;1.00;;;;;;5043960;28;20444;-73
2023/06/17 06:50:40;;;;;;;14.97;8.60;;;21.00;1.00;;;;;;5062328;28;20174;-73
2023/06/17 06:53:05;;;;;;;11.90;9.53;;;21.00;1.00;;;;;;5036905;28;20689;-74
2023/06/17 06:55:31;;;;;;;11.90;8.50;;;21.10;1.00;;;;;;5033778;28;20596;-73
2023/06/17 06:57:56;;;;;;;11.33;8.90;;;21.20;1.00;;;;;;5044945;28;20699;-73
2023/06/17 07:00:22;;;;;;;9.50;8.23;;;21.20;1.00;;;;;;5040535;28;20258;-73
2023/06/17 07:02:47;;;;;;;9.73;8.47;;;21.40;1.00;;;;;;5044693;28;20195;-73
2023/06/17 07:05:13;;;;;;;11.00;9.07;;;21.60;1.00;;;;;;5036140;28;20231;-73
2023/06/17 07:07:38;;;;;;;10.00;8.37;;;21.70;1.00;;;;;;5043659;28;20181;-73
2023/06/17 07:10:04;;;;;;;11.87;8.70;;;21.80;1.00;;;;;;5031052;28;20205;-73
2023/06/17 07:12:30;;;;;;;10.77;8.90;;;;;;;;;;5038386;28;20314;-73
2023/06/17 07:14:56;;;;;;;11.70;8.40;;;22.30;1.00;;;;;;5049376;28;20188;-73
2023/06/17 07:17:21;;;;;;;10.60;8.60;;;23.50;1.00;;;;;;5032476;28;20476;-72
2023/06/17 07:19:47;;;;;;;13.03;8.83;;;22.60;1.00;;;;;;5039978;28;20563;-73
2023/06/17 07:22:12;;;;;;;14.57;9.07;;;22.90;1.00;;;;;;5038323;28;20200;-73
2023/06/17 07:24:38;;;;;;;12.87;9.13;;;22.90;1.00;;;;;;5028972;28;20192;-72
2023/06/17 07:27:04;;;;;;;12.13;8.30;;;23.00;1.00;;;;;;5031761;28;20204;-72
2023/06/17 07:29:30;;;;;;;10.63;8.30;;;23.10;1.00;;;;;;5025026;28;20212;-72
2023/06/17 07:31:55;;;;;;;12.60;8.43;;;23.20;1.00;;;;;;5040457;28;20735;-72
2023/06/17 07:34:21;;;;;;;11.40;8.80;;;23.40;1.00;;;;;;5035573;28;20204;-74
2023/06/17 07:36:52;;;;;;;12.37;8.80;;;;;;;;;;5031431;28;20219;-73
2023/06/17 07:39:21;;;;;;;11.80;8.00;;;23.70;1.00;;;;;;5037814;28;20463;-71
2023/06/17 07:41:46;;;;;;;11.87;8.87;;;23.80;1.00;;;;;;5042995;28;20878;-73
2023/06/17 07:44:11;;;;;;;11.88;8.57;;;24.20;1.00;;;;;;5031333;28;20595;-72
2023/06/17 07:46:37;;;;;;;12.20;8.47;;;24.90;1.00;;;;;;5019270;28;20212;-71
2023/06/17 07:49:03;;;;;;;9.53;8.10;;;24.40;1.00;;;;;;5028212;28;20213;-71
2023/06/17 07:51:28;;;;;;;11.00;8.17;;;24.80;1.00;;;;;;5027805;28;20909;-75
2023/06/17 07:53:54;;;;;;;10.83;8.70;;;25.20;1.00;;;;;;5061839;28;20189;-74
2023/06/17 07:56:20;;;;;;;11.20;9.03;;;25.40;1.00;;;;;;5033096;28;20197;-74
2023/06/17 07:58:46;;;;;;;21.27;10.20;;;25.70;1.00;;;;;;5033204;28;20228;-74
2023/06/17 08:01:11;;;;;;;11.37;8.90;;;25.90;1.00;;;;;;5032678;28;20926;-74
2023/06/17 08:03:37;;;;;;;12.70;9.10;;;26.10;1.00;;;;;;5039242;28;20180;-71
2023/06/17 08:06:03;;;;;;;12.50;8.90;;;26.20;1.00;;;;;;5033055;28;20678;-71
2023/06/17 08:08:29;;;;;;;9.80;8.40;;;26.20;1.00;;;;;;5032769;28;20207;-72
2023/06/17 08:10:54;;;;;;;9.00;8.07;;;26.40;1.00;;;;;;5032990;28;20181;-72
2023/06/17 08:13:20;;;;;;;9.70;7.83;;;;;;;;;;5034097;28;20260;-72
2023/06/17 08:15:46;;;;;;;19.13;8.87;;;;;;;;;;5045519;28;20185;-71
2023/06/17 08:18:12;;;;;;;13.33;7.97;;;27.40;1.00;;;;;;5063935;28;20201;-71
2023/06/17 08:20:39;;;;;;;10.80;8.13;;;27.20;1.00;;;;;;5032706;28;20251;-71
2023/06/17 08:23:05;;;;;;;11.50;8.03;;;27.40;1.00;;;;;;5032753;28;20174;-72
2023/06/17 08:25:31;;;;;;;9.17;8.00;;;27.50;1.00;;;;;;5064867;28;20219;-76
2023/06/17 08:27:57;;;;;;;10.83;8.20;;;27.60;1.00;;;;;;5032315;28;20238;-73
2023/06/17 08:30:22;;;;;;;9.70;8.20;;;27.80;1.00;;;;;;5041560;28;20552;-73
2023/06/17 08:32:48;;;;;;;11.50;8.23;;;27.60;1.00;;;;;;5047423;28;20197;-73
2023/06/17 08:35:14;;;;;;;10.80;7.73;;;27.80;1.00;;;;;;5064321;28;20185;-73
2023/06/17 08:37:40;;;;;;;10.50;8.60;;;;;;;;;;5041079;28;20205;-72
2023/06/17 08:40:06;;;;;;;8.60;7.70;;;28.10;1.00;;;;;;5035913;28;20201;-73
2023/06/17 08:42:32;;;;;;;8.93;7.60;;;28.00;1.00;;;;;;5043364;28;20223;-72
2023/06/17 08:45:00;;;;;;;11.43;8.50;;;28.20;1.00;;;;;;5042940;28;20204;-73
2023/06/17 08:47:27;;;;;;;8.57;7.33;;;28.80;1.00;;;;;;5049856;28;20199;-73
2023/06/17 08:49:56;;;;;;;12.60;8.47;;;28.90;1.00;;;;;;5064238;28;20240;-73
2023/06/17 08:52:22;;;;;;;14.80;8.00;;;29.10;1.00;;;;;;5049797;28;20191;-73
2023/06/17 08:54:48;;;;;;;9.37;7.80;;;29.70;1.00;;;;;;5036090;28;20181;-73
2023/06/17 08:57:14;;;;;;;12.33;8.00;;;29.50;1.00;;;;;;5039899;28;20299;-73
2023/06/17 08:59:40;;;;;;;10.63;9.20;;;30.00;1.00;;;;;;5039753;28;20219;-73
2023/06/17 09:02:07;;;;;;;16.23;7.60;;;30.00;1.00;;;;;;5047169;28;20176;-73
2023/06/17 09:04:33;;;;;;;14.93;7.57;;;30.20;1.00;;;;;;5043888;28;20262;-72
2023/06/17 09:06:59;;;;;;;10.90;7.57;;;30.50;1.00;;;;;;5051169;28;20185;-73
2023/06/17 09:09:25;;;;;;;11.02;7.82;;;31.40;1.00;;;;;;5045921;28;20200;-73
2023/06/17 09:11:51;;;;;;;8.65;7.18;;;32.10;1.00;;;;;;5045100;28;20196;-73
2023/06/17 09:14:18;;;;;;;10.40;7.10;;;32.10;1.00;;;;;;5051665;28;20203;-73
2023/06/17 09:16:44;;;;;;;8.57;6.40;;;33.20;1.00;;;;;;5040557;28;20212;-73
2023/06/17 09:19:13;;;;;;;10.75;7.10;;;34.40;1.00;;;;;;5047968;28;20235;-73
2023/06/17 09:21:39;;;;;;;7.07;6.25;;;35.10;1.00;;;;;;5043088;28;20180;-74
2023/06/17 09:24:06;;;;;;;8.43;7.05;;;36.10;1.00;;;;;;5037216;28;20185;-73
2023/06/17 09:26:33;;;;;;;9.45;6.70;;;36.30;1.00;;;;;;5032394;28;20200;-73
2023/06/17 09:29:03;;;;;;;8.38;6.68;;;36.40;1.00;;;;;;5051763;28;20242;-74
2023/06/17 09:31:30;;;;;;;7.65;6.30;;;36.40;1.00;;;;;;5051468;28;20180;-74
2023/06/17 09:33:56;;;;;;;11.82;6.10;;;37.20;1.00;;;;;;5046011;28;20180;-74
2023/06/17 09:36:23;;;;;;;9.43;6.68;;;38.30;1.00;;;;;;5041443;28;20355;-73
2023/06/17 09:38:51;;;;;;;12.05;6.47;;;38.50;1.00;;;;;;5052313;28;20585;-74
2023/06/17 09:41:20;;;;;;;12.68;6.28;;;39.30;1.00;;;;;;5033725;28;20185;-74
2023/06/17 09:43:53;;;;;;;7.80;6.28;;;39.30;1.00;;;;;;5043574;28;20456;-74
2023/06/17 09:46:29;;;;;;;11.57;6.20;;;39.60;1.00;;;;;;5049788;28;20264;-74
2023/06/17 09:48:59;;;;;;;11.25;5.95;;;39.70;1.00;;;;;;5045180;28;20204;-74
2023/06/17 09:51:25;;;;;;;6.75;5.68;;;39.70;1.00;;;;;;5039643;28;20192;-75
2023/06/17 09:53:52;;;;;;;9.52;6.30;;;39.80;1.00;;;;;;5043419;28;20184;-75
2023/06/17 09:56:19;;;;;;;17.63;6.43;;;39.70;1.00;;;;;;5038583;28;20590;-75
2023/06/17 09:58:45;;;;;;;7.18;6.47;;;39.50;1.00;;;;;;5037700;28;20208;-74
2023/06/17 10:01:11;;;;;;;11.05;6.28;;;39.40;1.00;;;;;;5051169;28;20333;-75
2023/06/17 10:03:39;;;;;;;10.57;6.53;;;39.60;1.00;;;;;;5048634;28;20177;-75
2023/06/17 10:06:05;;;;;;;6.10;5.43;;;40.20;1.00;;;;;;5039569;28;20540;-74
2023/06/17 10:08:34;;;;;;;8.50;5.95;;;41.10;1.00;;;;;;5039797;28;20205;-75
2023/06/17 10:11:00;;;;;;;6.45;5.32;;;41.30;1.00;;;;;;5041559;28;20173;-75
2023/06/17 10:13:27;;;;;;;6.45;5.85;;;41.00;1.00;;;;;;5049718;28;20181;-75
2023/06/17 10:15:56;;;;;;;6.15;5.50;;;41.50;1.00;;;;;;5039147;28;20188;-75
2023/06/17 10:18:24;;;;;;;8.32;5.78;;;42.10;1.00;;;;;;5046091;28;20208;-75
2023/06/17 10:20:51;;;;;;;7.45;5.82;;;42.10;1.00;;;;;;5042207;28;20168;-75
2023/06/17 10:23:22;;;;;;;7.57;5.63;;;42.60;1.00;;;;;;5038939;28;20181;-75
2023/06/17 10:25:48;;;;;;;6.60;5.13;;;42.10;1.00;;;;;;5026896;28;20196;-75
2023/06/17 10:28:16;;;;;;;5.50;4.80;;;42.40;1.00;;;;;;5035332;28;20228;-75
2023/06/17 10:30:48;;;;;;;7.53;5.53;;;42.40;1.00;;;;;;5050471;28;20276;-75
2023/06/17 10:33:14;;;;;;;6.03;5.00;;;42.00;1.00;;;;;;5050966;28;20686;-75
2023/06/17 10:35:50;;;;;;;7.88;5.53;;;41.70;1.00;;;;;;5050301;28;20181;-75
2023/06/17 10:38:29;;;;;;;7.07;5.03;;;43.00;1.00;;;;;;5043138;28;20587;-75
2023/06/17 10:40:56;;;;;;;6.60;5.30;;;;;;;;;;5032357;28;20235;-75
2023/06/17 10:43:22;;;;;;;7.35;5.05;;;43.60;1.00;;;;;;5039130;28;20185;-75
2023/06/17 10:45:54;;;;;;;7.05;5.35;;;43.60;1.00;;;;;;5047754;28;20202;-75
2023/06/17 10:48:30;;;;;;;9.07;5.50;;;43.40;1.00;;;;;;5038759;28;20203;-75
2023/06/17 10:50:58;;;;;;;7.72;5.43;;;43.30;1.00;;;;;;5046070;28;20208;-74
2023/06/17 10:53:31;;;;;;;8.93;5.70;;;42.90;1.00;;;;;;5038492;28;20197;-75
2023/06/17 10:55:58;;;;;;;7.90;5.25;;;39.40;1.00;;;;;;5033690;28;20176;-74
2023/06/17 10:58:42;;;;;;;8.65;5.45;;;39.30;1.00;;;;;;5043015;28;20273;-74
2023/06/17 11:01:10;;;;;;;7.20;5.65;;;37.10;1.00;;;;;;5027042;28;20690;-73
2023/06/17 11:03:36;;;;;;;10.07;6.40;;;;;;;;;;5037015;28;20236;-75
2023/06/17 11:06:03;;;;;;;10.15;5.63;;;39.60;1.00;;;;;;5034573;28;20185;-75
2023/06/17 11:08:31;;;;;;;7.65;6.03;;;39.60;1.00;;;;;;5028104;28;20209;-76
2023/06/17 11:11:16;;;;;;;7.45;5.35;;;40.20;1.00;;;;;;5031139;28;20188;-76
2023/06/17 11:13:44;;;;;;;7.88;6.10;;;40.90;1.00;;;;;;5028855;28;20181;-77
2023/06/17 11:16:10;;;;;;;7.22;6.50;;;40.90;1.00;;;;;;5029923;28;20184;-80
2023/06/17 11:18:37;;;;;;;14.05;6.03;;;41.20;1.00;;;;;;5032144;28;20211;-79
2023/06/17 11:21:06;;;;;;;8.68;6.35;;;41.10;1.00;;;;;;5036262;28;20196;-77
2023/06/17 11:23:33;;;;;;;9.20;6.07;;;40.50;1.00;;;;;;5029321;28;20636;-79
2023/06/17 11:26:00;;;;;;;6.20;5.60;;;40.60;1.00;;;;;;5037886;28;20650;-76
2023/06/17 11:28:26;;;;;;;7.57;5.80;;;41.40;1.00;;;;;;5030044;28;20292;-76
2023/06/17 11:30:54;;;;;;;7.45;6.50;;;41.10;1.00;;;;;;5033862;28;20268;-77
2023/06/17 11:33:20;;;;;;;7.68;6.03;;;40.90;1.00;;;;;;5037799;28;20189;-77
2023/06/17 11:35:48;;;;;;;6.57;5.95;;;39.70;1.00;;;;;;5029027;28;20181;-75
2023/06/17 11:38:16;;;;;;;8.25;6.50;;;40.40;1.00;;;;;;5036512;28;20227;-76
2023/06/17 11:40:42;;;;;;;6.82;6.00;;;40.60;1.00;;;;;;5028128;28;20216;-77
2023/06/17 11:43:09;;;;;;;7.05;6.18;;;40.90;1.00;;;;;;5042454;28;20173;-76
2023/06/17 11:45:35;;;;;;;7.93;6.65;;;41.20;1.00;;;;;;5029659;28;20185;-76
2023/06/17 11:48:06;;;;;;;9.90;6.65;;;41.00;1.00;;;;;;5029485;28;20180;-78
2023/06/17 11:50:35;;;;;;;6.45;5.78;;;40.50;1.00;;;;;;5036898;28;20287;-76
2023/06/17 11:53:01;;;;;;;8.93;6.40;;;40.70;1.00;;;;;;5029489;28;20193;-76
2023/06/17 11:55:35;;;;;;;6.70;5.93;;;41.60;1.00;;;;;;5034295;28;20223;-74
2023/06/17 11:58:02;;;;;;;12.15;5.93;;;42.00;1.00;;;;;;5027458;28;20232;-74
2023/06/17 12:00:29;;;;;;;6.88;6.13;;;42.60;1.00;;;;;;5028584;28;20201;-76
2023/06/17 12:02:56;;;;;;;7.25;5.95;;;42.40;1.00;;;;;;5029385;28;20178;-75
2023/06/17 12:05:29;;;;;;;7.20;6.50;;;42.60;1.00;;;;;;5027646;28;20185;-76
2023/06/17 12:07:59;;;;;;;6.68;5.90;;;43.00;1.00;;;;;;5029584;28;20552;-76
2023/06/17 12:10:26;;;;;;;7.07;5.93;;;42.20;1.00;;;;;;5027230;28;20204;-75
2023/06/17 12:12:56;;;;;;;9.48;6.13;;;41.70;1.00;;;;;;5036121;28;20181;-75
2023/06/17 12:15:28;;;;;;;8.55;5.88;;;41.80;1.00;;;;;;5029093;28;20194;-75
2023/06/17 12:17:53;;;;;;;16.15;6.20;;;42.40;1.00;;;;;;5021518;28;20196;-76
2023/06/17 12:20:20;;;;;;;7.15;5.80;;;42.80;1.00;;;;;;5028690;28;20235;-74
2023/06/17 12:22:48;;;;;;;9.30;6.15;;;42.40;1.00;;;;;;5027728;28;20195;-75
2023/06/17 12:25:14;;;;;;;6.47;5.88;;;42.70;1.00;;;;;;5043237;28;20288;-74
2023/06/17 12:27:41;;;;;;;8.25;5.90;;;42.20;1.00;;;;;;5037376;28;20654;-75
2023/06/17 12:30:08;;;;;;;7.43;6.00;;;39.90;1.00;;;;;;5030726;28;20204;-75
2023/06/17 12:32:36;;;;;;;8.05;6.55;;;38.20;1.00;;;;;;5027419;28;20667;-74
2023/06/17 12:35:02;;;;;;;8.73;6.35;;;36.50;1.00;;;;;;5035537;28;20181;-76
2023/06/17 12:37:29;;;;;;;7.47;6.22;;;35.30;1.00;;;;;;5036505;28;20208;-75
2023/06/17 12:39:59;;;;;;;9.07;6.40;;;34.80;1.00;;;;;;5027876;28;20232;-74
2023/06/17 12:42:26;;;;;;;8.55;6.53;;;36.80;1.00;;;;;;5029819;28;20683;-74
2023/06/17 12:44:52;;;;;;;12.52;6.85;;;39.00;1.00;;;;;;5024079;28;20189;-74
2023/06/17 12:47:21;;;;;;;8.38;6.53;;;39.70;1.00;;;;;;5032315;28;20194;-74
2023/06/17 12:49:48;;;;;;;10.68;6.68;;;38.60;1.00;;;;;;5030257;28;20239;-74
2023/06/17 12:52:14;;;;;;;8.23;6.20;;;38.00;1.00;;;;;;5032262;28;20602;-74
2023/06/17 12:54:42;;;;;;;11.52;6.63;;;36.90;1.00;;;;;;5038220;28;20196;-74